sensor_id;sensor_type;location;lat;lon;timestamp;pressure;altitude;pressure_sealevel;temperature;humidity
86104;BME280;76727;51.216;17.394;2024-03-02T00:00:58;99036.28;;;8.55;100.00
86104;BME280;76727;51.216;17.394;2024-03-02T00:04:21;99041.25;;;8.63;100.00
86104;BME280;76727;51.216;17.394;2024-03-02T00:07:24;99027.59;;;8.53;100.00
86104;BME280;76727;51.216;17.394;2024-03-02T00:10:33;99028.50;;;8.52;100.00
86104;BME280;76727;51.216;17.394;2024-03-02T00:13:39;99034.69;;;8.51;100.00
86104;BME280;76727;51.216;17.394;2024-03-02T00:16:42;99036.34;;;8.54;100.00
86104;BME280;76727;51.216;17.394;2024-03-02T00:19:45;99029.50;;;8.50;100.00
86104;BME280;76727;51.216;17.394;2024-03-02T00:22:47;99020.63;;;8.52;100.00
86104;BME280;76727;51.216;17.394;2024-03-02T00:25:52;99020.94;;;8.43;100.00
86104;BME280;76727;51.216;17.394;2024-03-02T00:28:56;99018.13;;;8.49;100.00
86104;BME280;76727;51.216;17.394;2024-03-02T00:32:00;99015.00;;;8.38;100.00
86104;BME280;76727;51.216;17.394;2024-03-02T00:35:05;99010.13;;;8.52;100.00
86104;BME280;76727;51.216;17.394;2024-03-02T00:38:08;98996.34;;;8.47;100.00
86104;BME280;76727;51.216;17.394;2024-03-02T00:41:15;99001.63;;;8.44;100.00
86104;BME280;76727;51.216;17.394;2024-03-02T00:44:23;98998.13;;;8.45;100.00
86104;BME280;76727;51.216;17.394;2024-03-02T00:47:28;98992.16;;;8.40;100.00
86104;BME280;76727;51.216;17.394;2024-03-02T00:50:30;99001.53;;;8.49;100.00
86104;BME280;76727;51.216;17.394;2024-03-02T00:53:33;99006.31;;;8.36;100.00
86104;BME280;76727;51.216;17.394;2024-03-02T00:56:36;98998.75;;;8.26;100.00
86104;BME280;76727;51.216;17.394;2024-03-02T00:59:41;99005.22;;;8.18;100.00
86104;BME280;76727;51.216;17.394;2024-03-02T01:02:43;99004.50;;;8.13;100.00
86104;BME280;76727;51.216;17.394;2024-03-02T01:05:46;99003.53;;;8.15;100.00
86104;BME280;76727;51.216;17.394;2024-03-02T01:08:49;99007.31;;;8.08;100.00
86104;BME280;76727;51.216;17.394;2024-03-02T01:11:55;99009.22;;;8.03;100.00
86104;BME280;76727;51.216;17.394;2024-03-02T01:14:59;99005.97;;;7.96;100.00
86104;BME280;76727;51.216;17.394;2024-03-02T01:18:02;99015.97;;;7.85;100.00
86104;BME280;76727;51.216;17.394;2024-03-02T01:21:05;99008.03;;;7.86;100.00
86104;BME280;76727;51.216;17.394;2024-03-02T01:24:08;99009.91;;;7.83;100.00
86104;BME280;76727;51.216;17.394;2024-03-02T01:27:10;99008.03;;;7.86;100.00
86104;BME280;76727;51.216;17.394;2024-03-02T01:30:14;99007.94;;;7.89;100.00
86104;BME280;76727;51.216;17.394;2024-03-02T01:33:17;99005.38;;;7.88;100.00
86104;BME280;76727;51.216;17.394;2024-03-02T01:36:20;99002.81;;;7.86;100.00
86104;BME280;76727;51.216;17.394;2024-03-02T01:39:23;99017.72;;;7.84;100.00
86104;BME280;76727;51.216;17.394;2024-03-02T01:42:26;99007.94;;;7.89;100.00
86104;BME280;76727;51.216;17.394;2024-03-02T01:45:31;99007.09;;;7.87;100.00
86104;BME280;76727;51.216;17.394;2024-03-02T01:48:34;99010.38;;;7.94;100.00
86104;BME280;76727;51.216;17.394;2024-03-02T01:51:36;99008.03;;;7.86;100.00
86104;BME280;76727;51.216;17.394;2024-03-02T01:54:39;99004.59;;;7.84;100.00
86104;BME280;76727;51.216;17.394;2024-03-02T01:57:42;98998.44;;;7.85;100.00
86104;BME280;76727;51.216;17.394;2024-03-02T02:00:47;98994.97;;;7.85;100.00
86104;BME280;76727;51.216;17.394;2024-03-02T02:03:50;98999.03;;;7.93;100.00
86104;BME280;76727;51.216;17.394;2024-03-02T02:06:52;98997.63;;;7.83;100.00
86104;BME280;76727;51.216;17.394;2024-03-02T02:09:55;98995.06;;;7.82;100.00
86104;BME280;76727;51.216;17.394;2024-03-02T02:12:58;98993.38;;;7.81;100.00
86104;BME280;76727;51.216;17.394;2024-03-02T02:16:06;98991.59;;;7.81;100.00
86104;BME280;76727;51.216;17.394;2024-03-02T02:19:09;98974.56;;;7.68;100.00
86104;BME280;76727;51.216;17.394;2024-03-02T02:22:13;98998.06;;;7.71;100.00
86104;BME280;76727;51.216;17.394;2024-03-02T02:25:16;98997.31;;;7.67;100.00
86104;BME280;76727;51.216;17.394;2024-03-02T02:28:17;98989.59;;;7.63;100.00
86104;BME280;76727;51.216;17.394;2024-03-02T02:31:21;98997.44;;;7.63;100.00
86104;BME280;76727;51.216;17.394;2024-03-02T02:34:23;98988.09;;;7.55;100.00
86104;BME280;76727;51.216;17.394;2024-03-02T02:37:28;98980.47;;;7.48;100.00
86104;BME280;76727;51.216;17.394;2024-03-02T02:40:30;98979.00;;;7.39;100.00
86104;BME280;76727;51.216;17.394;2024-03-02T02:43:33;98980.75;;;7.38;100.00
86104;BME280;76727;51.216;17.394;2024-03-02T02:46:35;98980.91;;;7.34;100.00
86104;BME280;76727;51.216;17.394;2024-03-02T02:49:38;98968.81;;;7.30;100.00
86104;BME280;76727;51.216;17.394;2024-03-02T02:52:43;98962.16;;;7.19;100.00
86104;BME280;76727;51.216;17.394;2024-03-02T02:55:46;98966.69;;;7.14;100.00
86104;BME280;76727;51.216;17.394;2024-03-02T02:58:48;98967.63;;;7.12;100.00
86104;BME280;76727;51.216;17.394;2024-03-02T03:01:51;98973.13;;;7.04;100.00
86104;BME280;76727;51.216;17.394;2024-03-02T03:04:54;98975.81;;;7.01;100.00
86104;BME280;76727;51.216;17.394;2024-03-02T03:07:58;98973.41;;;6.95;100.00
86104;BME280;76727;51.216;17.394;2024-03-02T03:11:00;98974.03;;;7.03;100.00
86104;BME280;76727;51.216;17.394;2024-03-02T03:14:03;98968.78;;;7.03;100.00
86104;BME280;76727;51.216;17.394;2024-03-02T03:17:04;98976.25;;;7.15;100.00
86104;BME280;76727;51.216;17.394;2024-03-02T03:20:08;98974.25;;;7.23;100.00
86104;BME280;76727;51.216;17.394;2024-03-02T03:23:12;98979.25;;;7.31;100.00
86104;BME280;76727;51.216;17.394;2024-03-02T03:26:15;98975.56;;;7.37;100.00
86104;BME280;76727;51.216;17.394;2024-03-02T03:29:17;98985.94;;;7.40;100.00
86104;BME280;76727;51.216;17.394;2024-03-02T03:32:20;98986.13;;;7.35;100.00
86104;BME280;76727;51.216;17.394;2024-03-02T03:35:22;98985.22;;;7.36;100.00
86104;BME280;76727;51.216;17.394;2024-03-02T03:38:25;98992.66;;;7.49;100.00
86104;BME280;76727;51.216;17.394;2024-03-02T03:41:28;98993.53;;;7.49;100.00
86104;BME280;76727;51.216;17.394;2024-03-02T03:44:31;98988.38;;;7.46;100.00
86104;BME280;76727;51.216;17.394;2024-03-02T03:47:34;98988.28;;;7.49;100.00
86104;BME280;76727;51.216;17.394;2024-03-02T03:50:37;98990.75;;;7.54;100.00
86104;BME280;76727;51.216;17.394;2024-03-02T03:53:40;98978.63;;;7.51;100.00
86104;BME280;76727;51.216;17.394;2024-03-02T03:56:43;98978.66;;;7.50;100.00
86104;BME280;76727;51.216;17.394;2024-03-02T03:59:45;98982.13;;;7.50;100.00
86104;BME280;76727;51.216;17.394;2024-03-02T04:02:48;98986.47;;;7.51;100.00
86104;BME280;76727;51.216;17.394;2024-03-02T04:05:51;98987.19;;;7.56;100.00
86104;BME280;76727;51.216;17.394;2024-03-02T04:08:55;98986.53;;;7.50;100.00
86104;BME280;76727;51.216;17.394;2024-03-02T04:11:58;98999.75;;;7.45;100.00
86104;BME280;76727;51.216;17.394;2024-03-02T04:15:00;99010.19;;;7.48;100.00
86104;BME280;76727;51.216;17.394;2024-03-02T04:18:04;99002.31;;;7.48;100.00
86104;BME280;76727;51.216;17.394;2024-03-02T04:21:07;98999.72;;;7.73;100.00
86104;BME280;76727;51.216;17.394;2024-03-02T04:24:11;99009.59;;;7.65;100.00
86104;BME280;76727;51.216;17.394;2024-03-02T04:27:14;99011.78;;;7.52;100.00
86104;BME280;76727;51.216;17.394;2024-03-02T04:30:17;98995.28;;;7.49;100.00
86104;BME280;76727;51.216;17.394;2024-03-02T04:33:20;98993.53;;;7.49;100.00
86104;BME280;76727;51.216;17.394;2024-03-02T04:36:21;99001.50;;;7.46;100.00
86104;BME280;76727;51.216;17.394;2024-03-02T04:39:25;99003.41;;;7.41;100.00
86104;BME280;76727;51.216;17.394;2024-03-02T04:42:28;98992.19;;;7.36;100.00
86104;BME280;76727;51.216;17.394;2024-03-02T04:45:30;98997.72;;;7.28;100.00
86104;BME280;76727;51.216;17.394;2024-03-02T04:48:32;99007.47;;;7.23;100.00
86104;BME280;76727;51.216;17.394;2024-03-02T04:51:34;99005.28;;;7.09;100.00
86104;BME280;76727;51.216;17.394;2024-03-02T04:54:39;99014.03;;;7.08;100.00
86104;BME280;76727;51.216;17.394;2024-03-02T04:57:41;99016.78;;;7.03;100.00
86104;BME280;76727;51.216;17.394;2024-03-02T05:00:42;99016.09;;;6.97;100.00
86104;BME280;76727;51.216;17.394;2024-03-02T05:03:45;99018.59;;;7.01;100.00
86104;BME280;76727;51.216;17.394;2024-03-02T05:06:48;99018.09;;;6.88;100.00
86104;BME280;76727;51.216;17.394;2024-03-02T05:09:52;99029.41;;;6.90;100.00
86104;BME280;76727;51.216;17.394;2024-03-02T05:12:55;99025.84;;;6.93;100.00
86104;BME280;76727;51.216;17.394;2024-03-02T05:15:58;99024.28;;;6.86;100.00
86104;BME280;76727;51.216;17.394;2024-03-02T05:19:01;99027.84;;;6.85;100.00
86104;BME280;76727;51.216;17.394;2024-03-02T05:22:04;99032.03;;;6.90;100.00
86104;BME280;76727;51.216;17.394;2024-03-02T05:25:07;99033.81;;;6.88;100.00
86104;BME280;76727;51.216;17.394;2024-03-02T05:28:10;99026.91;;;6.86;100.00
86104;BME280;76727;51.216;17.394;2024-03-02T05:31:15;99023.38;;;6.87;100.00
86104;BME280;76727;51.216;17.394;2024-03-02T05:34:17;99028.84;;;6.79;100.00
86104;BME280;76727;51.216;17.394;2024-03-02T05:37:20;99041.19;;;6.76;100.00
86104;BME280;76727;51.216;17.394;2024-03-02T05:40:24;99040.34;;;6.73;100.00
86104;BME280;76727;51.216;17.394;2024-03-02T05:43:27;99045.84;;;6.66;100.00
86104;BME280;76727;51.216;17.394;2024-03-02T05:46:29;99041.41;;;6.68;100.00
86104;BME280;76727;51.216;17.394;2024-03-02T05:49:31;99041.50;;;6.65;100.00
86104;BME280;76727;51.216;17.394;2024-03-02T05:52:34;99044.16;;;6.63;100.00
86104;BME280;76727;51.216;17.394;2024-03-02T05:55:38;99042.28;;;6.67;100.00
86104;BME280;76727;51.216;17.394;2024-03-02T05:58:41;99046.81;;;6.62;100.00
86104;BME280;76727;51.216;17.394;2024-03-02T06:01:44;99047.75;;;6.59;100.00
86104;BME280;76727;51.216;17.394;2024-03-02T06:04:47;99045.09;;;6.61;100.00
86104;BME280;76727;51.216;17.394;2024-03-02T06:07:50;99045.16;;;6.57;100.00
86104;BME280;76727;51.216;17.394;2024-03-02T06:10:53;99052.97;;;6.61;100.00
86104;BME280;76727;51.216;17.394;2024-03-02T06:13:56;99060.75;;;6.62;100.00
86104;BME280;76727;51.216;17.394;2024-03-02T06:16:59;99065.94;;;6.64;100.00
86104;BME280;76727;51.216;17.394;2024-03-02T06:20:02;99071.03;;;6.68;100.00
86104;BME280;76727;51.216;17.394;2024-03-02T06:23:05;99068.41;;;6.68;100.00
86104;BME280;76727;51.216;17.394;2024-03-02T06:26:08;99061.34;;;6.72;100.00
86104;BME280;76727;51.216;17.394;2024-03-02T06:29:11;99071.63;;;6.80;100.00
86104;BME280;76727;51.216;17.394;2024-03-02T06:32:14;99066.88;;;6.93;100.00
86104;BME280;76727;51.216;17.394;2024-03-02T06:35:16;99071.94;;;6.99;100.00
86104;BME280;76727;51.216;17.394;2024-03-02T06:38:19;99075.88;;;7.14;100.00
86104;BME280;76727;51.216;17.394;2024-03-02T06:41:23;99072.06;;;7.24;100.00
86104;BME280;76727;51.216;17.394;2024-03-02T06:44:26;99077.72;;;7.38;100.00
86104;BME280;76727;51.216;17.394;2024-03-02T06:47:28;99087.13;;;7.46;100.00
86104;BME280;76727;51.216;17.394;2024-03-02T06:50:31;99074.97;;;7.71;100.00
86104;BME280;76727;51.216;17.394;2024-03-02T06:53:34;99084.16;;;7.85;100.00
86104;BME280;76727;51.216;17.394;2024-03-02T06:56:37;99084.59;;;7.98;100.00
86104;BME280;76727;51.216;17.394;2024-03-02T06:59:40;99086.88;;;8.08;100.00
86104;BME280;76727;51.216;17.394;2024-03-02T07:02:43;99086.25;;;8.27;100.00
86104;BME280;76727;51.216;17.394;2024-03-02T07:05:45;99083.19;;;8.39;100.00
86104;BME280;76727;51.216;17.394;2024-03-02T07:08:47;99087.19;;;8.51;100.00
86104;BME280;76727;51.216;17.394;2024-03-02T07:11:50;99075.69;;;8.55;100.00
86104;BME280;76727;51.216;17.394;2024-03-02T07:14:53;99085.50;;;8.74;100.00
86104;BME280;76727;51.216;17.394;2024-03-02T07:17:54;99082.41;;;8.63;100.00
86104;BME280;76727;51.216;17.394;2024-03-02T07:20:57;99095.91;;;8.77;100.00
86104;BME280;76727;51.216;17.394;2024-03-02T07:24:00;99100.44;;;8.97;100.00
86104;BME280;76727;51.216;17.394;2024-03-02T07:27:04;99089.97;;;8.96;100.00
86104;BME280;76727;51.216;17.394;2024-03-02T07:30:07;99100.66;;;9.15;100.00
86104;BME280;76727;51.216;17.394;2024-03-02T07:33:10;99103.91;;;9.21;100.00
86104;BME280;76727;51.216;17.394;2024-03-02T07:36:13;99100.00;;;9.32;100.00
86104;BME280;76727;51.216;17.394;2024-03-02T07:39:15;99096.31;;;9.59;100.00
86104;BME280;76727;51.216;17.394;2024-03-02T07:42:18;99112.03;;;10.05;100.00
86104;BME280;76727;51.216;17.394;2024-03-02T07:45:21;99122.94;;;10.39;100.00
86104;BME280;76727;51.216;17.394;2024-03-02T07:48:24;99127.47;;;10.76;100.00
86104;BME280;76727;51.216;17.394;2024-03-02T07:51:27;99126.13;;;11.07;100.00
86104;BME280;76727;51.216;17.394;2024-03-02T07:54:30;99128.34;;;11.17;100.00
86104;BME280;76727;51.216;17.394;2024-03-02T07:57:34;99127.56;;;11.34;100.00
86104;BME280;76727;51.216;17.394;2024-03-02T08:00:38;99124.22;;;11.49;100.00
86104;BME280;76727;51.216;17.394;2024-03-02T08:03:41;99123.25;;;11.88;100.00
86104;BME280;76727;51.216;17.394;2024-03-02T08:06:45;99121.53;;;11.87;100.00
86104;BME280;76727;51.216;17.394;2024-03-02T08:09:48;99120.84;;;12.38;100.00
86104;BME280;76727;51.216;17.394;2024-03-02T08:12:52;99110.53;;;14.58;92.56
86104;BME280;76727;51.216;17.394;2024-03-02T08:15:55;99103.50;;;15.73;86.31
86104;BME280;76727;51.216;17.394;2024-03-02T08:18:58;99102.03;;;15.96;86.22
86104;BME280;76727;51.216;17.394;2024-03-02T08:22:01;99106.16;;;16.14;84.70
86104;BME280;76727;51.216;17.394;2024-03-02T08:25:04;99100.81;;;17.56;80.65
86104;BME280;76727;51.216;17.394;2024-03-02T08:28:09;99099.72;;;16.57;78.20
86104;BME280;76727;51.216;17.394;2024-03-02T08:31:11;99104.94;;;17.36;76.42
86104;BME280;76727;51.216;17.394;2024-03-02T08:34:14;99102.53;;;17.20;75.54
86104;BME280;76727;51.216;17.394;2024-03-02T08:37:16;99102.91;;;17.40;74.01
86104;BME280;76727;51.216;17.394;2024-03-02T08:40:20;99108.19;;;16.24;77.07
86104;BME280;76727;51.216;17.394;2024-03-02T08:43:24;99101.44;;;15.07;83.36
86104;BME280;76727;51.216;17.394;2024-03-02T08:46:27;99098.88;;;14.77;85.04
86104;BME280;76727;51.216;17.394;2024-03-02T08:49:30;99104.78;;;14.96;83.99
86104;BME280;76727;51.216;17.394;2024-03-02T08:52:33;99096.38;;;15.31;83.19
86104;BME280;76727;51.216;17.394;2024-03-02T08:55:35;99106.78;;;15.49;82.66
86104;BME280;76727;51.216;17.394;2024-03-02T08:58:39;99108.53;;;16.45;78.17
86104;BME280;76727;51.216;17.394;2024-03-02T09:01:42;99101.00;;;16.52;77.91
86104;BME280;76727;51.216;17.394;2024-03-02T09:04:45;99104.25;;;16.95;75.67
86104;BME280;76727;51.216;17.394;2024-03-02T09:07:48;99093.34;;;17.24;75.02
86104;BME280;76727;51.216;17.394;2024-03-02T09:10:50;99102.56;;;18.77;71.18
86104;BME280;76727;51.216;17.394;2024-03-02T09:13:55;99103.91;;;18.35;69.50
86104;BME280;76727;51.216;17.394;2024-03-02T09:16:58;99098.75;;;18.57;69.08
86104;BME280;76727;51.216;17.394;2024-03-02T09:19:59;99107.47;;;19.06;68.72
86104;BME280;76727;51.216;17.394;2024-03-02T09:23:02;99105.59;;;17.64;71.55
86104;BME280;76727;51.216;17.394;2024-03-02T09:26:06;99107.63;;;16.84;74.14
86104;BME280;76727;51.216;17.394;2024-03-02T09:29:13;99096.84;;;15.94;78.21
86104;BME280;76727;51.216;17.394;2024-03-02T09:32:16;99109.19;;;15.39;80.47
86104;BME280;76727;51.216;17.394;2024-03-02T09:35:18;99105.50;;;14.98;82.12
86104;BME280;76727;51.216;17.394;2024-03-02T09:38:20;99106.56;;;14.51;84.58
86104;BME280;76727;51.216;17.394;2024-03-02T09:41:24;99102.31;;;14.18;85.84
86104;BME280;76727;51.216;17.394;2024-03-02T09:44:28;99099.19;;;14.11;86.29
86104;BME280;76727;51.216;17.394;2024-03-02T09:47:31;99107.44;;;13.75;87.77
86104;BME280;76727;51.216;17.394;2024-03-02T09:50:34;99107.16;;;13.63;88.54
86104;BME280;76727;51.216;17.394;2024-03-02T09:53:37;99099.66;;;13.72;88.46
86104;BME280;76727;51.216;17.394;2024-03-02T09:56:39;99105.13;;;13.69;88.89
86104;BME280;76727;51.216;17.394;2024-03-02T09:59:43;99101.13;;;13.61;88.68
86104;BME280;76727;51.216;17.394;2024-03-02T10:02:46;99096.56;;;13.63;87.94
86104;BME280;76727;51.216;17.394;2024-03-02T10:05:48;99091.97;;;13.67;88.74
86104;BME280;76727;51.216;17.394;2024-03-02T10:08:52;99105.31;;;13.66;89.02
86104;BME280;76727;51.216;17.394;2024-03-02T10:12:03;99096.16;;;13.71;88.72
86104;BME280;76727;51.216;17.394;2024-03-02T10:15:08;99098.63;;;13.58;88.11
86104;BME280;76727;51.216;17.394;2024-03-02T10:18:12;99082.94;;;13.55;88.41
86104;BME280;76727;51.216;17.394;2024-03-02T10:21:15;99088.53;;;13.65;87.51
86104;BME280;76727;51.216;17.394;2024-03-02T10:24:19;99078.66;;;13.69;87.38
86104;BME280;76727;51.216;17.394;2024-03-02T10:27:25;99081.22;;;13.70;87.54
86104;BME280;76727;51.216;17.394;2024-03-02T10:30:30;99077.28;;;13.77;86.97
86104;BME280;76727;51.216;17.394;2024-03-02T10:33:32;99080.34;;;13.86;86.58
86104;BME280;76727;51.216;17.394;2024-03-02T10:36:35;99075.00;;;14.02;87.05
86104;BME280;76727;51.216;17.394;2024-03-02T10:39:39;99068.00;;;14.01;86.42
86104;BME280;76727;51.216;17.394;2024-03-02T10:42:43;99079.84;;;14.09;86.12
86104;BME280;76727;51.216;17.394;2024-03-02T10:45:49;99082.28;;;13.98;85.69
86104;BME280;76727;51.216;17.394;2024-03-02T10:48:52;99086.50;;;13.86;85.98
86104;BME280;76727;51.216;17.394;2024-03-02T10:51:55;99086.81;;;13.80;86.03
86104;BME280;76727;51.216;17.394;2024-03-02T10:54:57;99091.03;;;13.68;86.55
86104;BME280;76727;51.216;17.394;2024-03-02T10:58:00;99083.84;;;13.86;87.10
86104;BME280;76727;51.216;17.394;2024-03-02T11:01:07;99078.00;;;13.95;87.17
86104;BME280;76727;51.216;17.394;2024-03-02T11:04:13;99077.09;;;13.96;86.77
86104;BME280;76727;51.216;17.394;2024-03-02T11:07:18;99076.50;;;13.91;85.77
86104;BME280;76727;51.216;17.394;2024-03-02T11:10:22;99083.03;;;14.00;86.23
86104;BME280;76727;51.216;17.394;2024-03-02T11:13:31;99081.34;;;13.99;86.90
86104;BME280;76727;51.216;17.394;2024-03-02T11:16:35;99073.66;;;13.94;87.36
86104;BME280;76727;51.216;17.394;2024-03-02T11:19:39;99070.88;;;14.12;87.46
86104;BME280;76727;51.216;17.394;2024-03-02T11:22:43;99078.00;;;13.95;87.14
86104;BME280;76727;51.216;17.394;2024-03-02T11:25:45;99076.19;;;14.12;87.64
86104;BME280;76727;51.216;17.394;2024-03-02T11:28:48;99070.44;;;14.20;86.07
86104;BME280;76727;51.216;17.394;2024-03-02T11:31:58;99076.00;;;14.15;84.93
86104;BME280;76727;51.216;17.394;2024-03-02T11:35:02;99070.78;;;14.13;85.52
86104;BME280;76727;51.216;17.394;2024-03-02T11:38:04;99070.16;;;14.24;85.71
86104;BME280;76727;51.216;17.394;2024-03-02T11:41:08;99068.66;;;14.35;86.34
86104;BME280;76727;51.216;17.394;2024-03-02T11:44:10;99074.31;;;14.14;86.44
86104;BME280;76727;51.216;17.394;2024-03-02T11:47:15;99078.00;;;14.26;85.69
86104;BME280;76727;51.216;17.394;2024-03-02T11:50:28;99080.03;;;14.37;86.13
86104;BME280;76727;51.216;17.394;2024-03-02T11:53:31;99074.50;;;14.25;84.35
86104;BME280;76727;51.216;17.394;2024-03-02T11:56:35;99083.78;;;14.18;84.12
86104;BME280;76727;51.216;17.394;2024-03-02T11:59:37;99074.81;;;14.35;84.96
86104;BME280;76727;51.216;17.394;2024-03-02T12:02:42;99081.09;;;14.48;84.11
86104;BME280;76727;51.216;17.394;2024-03-02T12:05:48;99073.44;;;14.58;83.99
86104;BME280;76727;51.216;17.394;2024-03-02T12:08:52;99070.69;;;14.45;82.07
86104;BME280;76727;51.216;17.394;2024-03-02T12:12:05;99071.03;;;14.39;83.32
86104;BME280;76727;51.216;17.394;2024-03-02T12:15:08;99081.75;;;14.07;83.60
86104;BME280;76727;51.216;17.394;2024-03-02T12:18:12;99068.28;;;14.26;83.74
86104;BME280;76727;51.216;17.394;2024-03-02T12:21:15;99065.47;;;14.44;83.84
86104;BME280;76727;51.216;17.394;2024-03-02T12:24:18;99063.56;;;14.31;83.84
86104;BME280;76727;51.216;17.394;2024-03-02T12:27:21;99048.81;;;14.42;84.27
86104;BME280;76727;51.216;17.394;2024-03-02T12:30:24;99065.88;;;14.52;84.47
86104;BME280;76727;51.216;17.394;2024-03-02T12:33:30;99061.47;;;14.37;84.75
86104;BME280;76727;51.216;17.394;2024-03-02T12:36:37;99062.41;;;14.21;84.98
86104;BME280;76727;51.216;17.394;2024-03-02T12:39:40;99058.59;;;13.95;85.40
86104;BME280;76727;51.216;17.394;2024-03-02T12:42:43;99060.22;;;13.97;85.64
86104;BME280;76727;51.216;17.394;2024-03-02T12:45:46;99058.56;;;14.11;85.65
86104;BME280;76727;51.216;17.394;2024-03-02T12:48:51;99055.19;;;14.23;84.32
86104;BME280;76727;51.216;17.394;2024-03-02T12:51:54;99056.50;;;14.16;84.43
86104;BME280;76727;51.216;17.394;2024-03-02T12:54:57;99056.53;;;14.00;83.83
86104;BME280;76727;51.216;17.394;2024-03-02T12:58:00;99047.44;;;14.20;84.33
86104;BME280;76727;51.216;17.394;2024-03-02T13:01:06;99046.69;;;14.32;83.96
86104;BME280;76727;51.216;17.394;2024-03-02T13:04:10;99038.16;;;14.27;83.19
86104;BME280;76727;51.216;17.394;2024-03-02T13:07:13;99045.00;;;14.31;82.95
86104;BME280;76727;51.216;17.394;2024-03-02T13:10:16;99052.81;;;14.19;83.69
86104;BME280;76727;51.216;17.394;2024-03-02T13:13:19;99050.38;;;14.30;82.77
86104;BME280;76727;51.216;17.394;2024-03-02T13:16:20;99052.63;;;14.07;82.48
86104;BME280;76727;51.216;17.394;2024-03-02T13:19:24;99046.56;;;13.89;83.52
86104;BME280;76727;51.216;17.394;2024-03-02T13:22:26;99042.31;;;13.87;82.36
86104;BME280;76727;51.216;17.394;2024-03-02T13:25:30;99043.00;;;13.90;83.77
86104;BME280;76727;51.216;17.394;2024-03-02T13:28:31;99047.53;;;13.88;83.84
86104;BME280;76727;51.216;17.394;2024-03-02T13:31:33;99033.97;;;13.78;82.82
86104;BME280;76727;51.216;17.394;2024-03-02T13:34:37;99035.25;;;13.87;83.29
86104;BME280;76727;51.216;17.394;2024-03-02T13:37:39;99038.94;;;13.69;84.30
86104;BME280;76727;51.216;17.394;2024-03-02T13:40:40;99045.06;;;13.69;84.21
86104;BME280;76727;51.216;17.394;2024-03-02T13:43:44;99035.06;;;13.74;85.17
86104;BME280;76727;51.216;17.394;2024-03-02T13:46:45;99043.94;;;13.89;84.96
86104;BME280;76727;51.216;17.394;2024-03-02T13:49:49;99045.66;;;13.90;84.83
86104;BME280;76727;51.216;17.394;2024-03-02T13:52:51;99044.22;;;13.85;83.81
86104;BME280;76727;51.216;17.394;2024-03-02T13:55:53;99049.59;;;13.83;84.68
86104;BME280;76727;51.216;17.394;2024-03-02T13:58:55;99058.66;;;13.79;84.29
86104;BME280;76727;51.216;17.394;2024-03-02T14:01:58;99056.44;;;13.71;85.67
86104;BME280;76727;51.216;17.394;2024-03-02T14:05:01;99068.56;;;13.59;86.47
86104;BME280;76727;51.216;17.394;2024-03-02T14:08:04;99067.47;;;13.63;86.59
86104;BME280;76727;51.216;17.394;2024-03-02T14:11:06;99076.19;;;13.66;85.05
86104;BME280;76727;51.216;17.394;2024-03-02T14:14:09;99067.03;;;13.55;84.99
86104;BME280;76727;51.216;17.394;2024-03-02T14:17:12;99064.81;;;13.47;85.38
86104;BME280;76727;51.216;17.394;2024-03-02T14:20:15;99072.69;;;13.49;86.04
86104;BME280;76727;51.216;17.394;2024-03-02T14:23:17;99062.06;;;13.33;87.04
86104;BME280;76727;51.216;17.394;2024-03-02T14:26:20;99064.13;;;13.28;86.75
86104;BME280;76727;51.216;17.394;2024-03-02T14:29:23;99066.84;;;13.26;86.48
86104;BME280;76727;51.216;17.394;2024-03-02T14:32:25;99055.66;;;13.21;86.54
86104;BME280;76727;51.216;17.394;2024-03-02T14:35:28;99070.31;;;12.95;87.19
86104;BME280;76727;51.216;17.394;2024-03-02T14:38:31;99066.06;;;12.92;86.85
86104;BME280;76727;51.216;17.394;2024-03-02T14:41:32;99070.09;;;12.82;87.68
86104;BME280;76727;51.216;17.394;2024-03-02T14:44:35;99072.13;;;12.77;87.45
86104;BME280;76727;51.216;17.394;2024-03-02T14:47:37;99069.66;;;12.74;88.52
86104;BME280;76727;51.216;17.394;2024-03-02T14:50:41;99063.84;;;12.67;89.58
86104;BME280;76727;51.216;17.394;2024-03-02T14:53:43;99065.19;;;12.58;89.93
86104;BME280;76727;51.216;17.394;2024-03-02T14:56:47;99061.16;;;12.51;90.75
86104;BME280;76727;51.216;17.394;2024-03-02T14:59:49;99055.09;;;12.49;90.40
86104;BME280;76727;51.216;17.394;2024-03-02T15:02:52;99057.84;;;12.48;90.69
86104;BME280;76727;51.216;17.394;2024-03-02T15:05:56;99055.03;;;12.33;92.16
86104;BME280;76727;51.216;17.394;2024-03-02T15:08:59;99061.88;;;12.37;92.01
86104;BME280;76727;51.216;17.394;2024-03-02T15:12:03;99068.78;;;12.40;92.62
86104;BME280;76727;51.216;17.394;2024-03-02T15:15:06;99057.97;;;12.44;91.98
86104;BME280;76727;51.216;17.394;2024-03-02T15:18:08;99061.56;;;12.26;92.27
86104;BME280;76727;51.216;17.394;2024-03-02T15:21:13;99062.72;;;12.20;93.38
86104;BME280;76727;51.216;17.394;2024-03-02T15:24:16;99058.69;;;12.13;93.54
86104;BME280;76727;51.216;17.394;2024-03-02T15:27:19;99069.25;;;12.13;92.92
86104;BME280;76727;51.216;17.394;2024-03-02T15:30:22;99060.63;;;12.09;93.28
86104;BME280;76727;51.216;17.394;2024-03-02T15:33:25;99062.72;;;12.03;93.50
86104;BME280;76727;51.216;17.394;2024-03-02T15:36:29;99062.13;;;11.98;93.89
86104;BME280;76727;51.216;17.394;2024-03-02T15:39:32;99060.16;;;12.01;94.40
86104;BME280;76727;51.216;17.394;2024-03-02T15:42:35;99063.16;;;11.93;94.90
86104;BME280;76727;51.216;17.394;2024-03-02T15:45:38;99064.53;;;11.83;95.24
86104;BME280;76727;51.216;17.394;2024-03-02T15:48:41;99065.53;;;11.80;95.49
86104;BME280;76727;51.216;17.394;2024-03-02T15:51:45;99064.69;;;11.80;95.27
86104;BME280;76727;51.216;17.394;2024-03-02T15:54:48;99063.28;;;11.73;95.67
86104;BME280;76727;51.216;17.394;2024-03-02T15:57:51;99064.22;;;11.72;96.08